createdAt,value
2022-10-11T00:02:49.444Z,3.23
2022-10-11T00:07:52.371Z,2.97
2022-10-11T00:12:54.708Z,3.33
2022-10-11T00:17:57.082Z,3.10
2022-10-11T00:22:59.533Z,3.10
2022-10-11T00:28:01.881Z,3.07
2022-10-11T00:33:04.311Z,3.27
2022-10-11T00:38:06.660Z,2.73
2022-10-11T00:43:21.256Z,3.00
2022-10-11T00:48:43.515Z,3.37
2022-10-11T00:53:49.653Z,3.27
2022-10-11T00:58:53.167Z,2.70
2022-10-11T01:03:56.872Z,3.40
2022-10-11T01:09:00.207Z,2.97
2022-10-11T01:14:11.370Z,2.90
2022-10-11T01:19:16.510Z,2.60
2022-10-11T01:24:36.670Z,3.40
2022-10-11T01:30:08.380Z,3.20
2022-10-11T01:35:31.753Z,3.13
2022-10-11T01:40:47.437Z,3.57
2022-10-11T01:45:55.148Z,3.27
2022-10-11T01:50:59.387Z,3.27
2022-10-11T01:56:16.881Z,3.27
2022-10-11T02:01:41.261Z,3.47
2022-10-11T02:06:49.450Z,3.60
2022-10-11T02:11:56.885Z,3.70
2022-10-11T02:17:04.581Z,4.20
2022-10-11T02:22:12.753Z,3.90
2022-10-11T02:27:19.173Z,4.07
2022-10-11T02:32:24.159Z,4.10
2022-10-11T02:37:55.257Z,3.77
2022-10-11T02:43:17.762Z,3.73
2022-10-11T02:48:20.203Z,3.90
2022-10-11T02:53:23.798Z,4.83
2022-10-11T02:58:26.287Z,3.93
2022-10-11T03:03:28.688Z,4.10
2022-10-11T03:08:31.134Z,4.67
2022-10-11T03:13:33.566Z,4.60
2022-10-11T03:18:35.939Z,5.30
2022-10-11T03:23:38.261Z,5.47
2022-10-11T03:28:40.686Z,5.87
2022-10-11T03:33:43.018Z,5.37
2022-10-11T03:38:45.600Z,5.57
2022-10-11T03:43:48.183Z,6.13
2022-10-11T03:48:50.649Z,6.10
2022-10-11T03:53:53.156Z,6.53
2022-10-11T03:58:55.819Z,6.87
2022-10-11T04:03:58.307Z,6.13
2022-10-11T04:09:01.016Z,7.10
2022-10-11T04:14:03.686Z,8.33
2022-10-11T04:19:06.115Z,7.27
2022-10-11T04:24:10.653Z,7.13
2022-10-11T04:29:13.044Z,6.90
2022-10-11T04:34:15.659Z,7.53
2022-10-11T04:39:18.532Z,9.63
2022-10-11T04:44:20.908Z,8.57
2022-10-11T04:49:23.410Z,7.13
2022-10-11T04:54:26.221Z,7.60
2022-10-11T04:59:28.583Z,7.23
2022-10-11T05:04:31.019Z,8.77
2022-10-11T05:09:33.383Z,9.27
2022-10-11T05:14:35.836Z,8.37
2022-10-11T05:19:38.212Z,9.47
2022-10-11T05:24:40.603Z,9.97
2022-10-11T05:29:42.955Z,8.40
2022-10-11T05:34:45.456Z,9.10
2022-10-11T05:39:48.149Z,8.60
2022-10-11T05:44:50.594Z,9.43
2022-10-11T05:49:52.907Z,9.20
2022-10-11T05:54:55.299Z,8.53
2022-10-11T05:59:57.848Z,8.10
2022-10-11T06:05:00.352Z,8.17
2022-10-11T06:10:04.068Z,8.40
2022-10-11T06:15:07.533Z,9.07
2022-10-11T06:20:10.689Z,8.20
2022-10-11T06:25:13.099Z,8.80
2022-10-11T06:30:15.734Z,9.00
2022-10-11T06:35:18.450Z,7.87
2022-10-11T06:40:20.851Z,8.20
2022-10-11T06:45:23.308Z,8.07
2022-10-11T06:50:47.142Z,9.33
2022-10-11T06:55:48.359Z,8.60
2022-10-11T07:00:50.844Z,8.03
2022-10-11T07:05:53.248Z,9.27
2022-10-11T07:11:04.613Z,7.23
2022-10-11T07:16:09.916Z,8.03
2022-10-11T07:21:14.852Z,8.93
2022-10-11T07:26:18.359Z,10.23
2022-10-11T07:31:23.229Z,8.53
2022-10-11T07:36:27.434Z,8.43
2022-10-11T07:41:30.011Z,6.83
2022-10-11T07:46:32.829Z,8.27
2022-10-11T07:51:35.531Z,7.93
2022-10-11T07:56:39.966Z,8.60
2022-10-11T08:01:42.685Z,7.50
2022-10-11T08:06:47.719Z,8.00
2022-10-11T08:11:53.456Z,6.63
2022-10-11T08:16:55.914Z,7.30
2022-10-11T08:21:58.358Z,7.33
2022-10-11T08:27:00.769Z,7.40
2022-10-11T08:32:03.203Z,9.20
2022-10-11T08:37:05.858Z,7.83
2022-10-11T08:42:23.730Z,8.47
2022-10-11T08:47:42.833Z,8.50
2022-10-11T08:53:04.645Z,8.83
2022-10-11T08:58:09.378Z,9.93
2022-10-11T09:03:21.058Z,8.90
2022-10-11T09:08:32.638Z,9.73
2022-10-11T09:13:52.423Z,8.67
2022-10-11T09:18:57.795Z,10.13
2022-10-11T09:24:03.152Z,9.77
2022-10-11T09:29:19.022Z,10.80
2022-10-11T09:34:25.354Z,11.27
2022-10-11T09:39:58.866Z,9.10
2022-10-11T09:45:02.139Z,9.83
2022-10-11T09:50:26.305Z,8.30
2022-10-11T09:55:34.688Z,10.37
2022-10-11T10:00:38.556Z,9.87
2022-10-11T10:05:40.931Z,9.07
2022-10-11T10:10:48.691Z,9.77
2022-10-11T10:15:55.450Z,9.87
2022-10-11T10:20:59.716Z,9.50
2022-10-11T10:26:21.169Z,9.60
2022-10-11T10:31:29.527Z,10.07
2022-10-11T10:36:39.777Z,9.00
2022-10-11T10:41:42.244Z,8.87
2022-10-11T10:47:02.404Z,8.77
2022-10-11T10:52:28.986Z,9.10
2022-10-11T10:57:38.182Z,8.73
2022-10-11T11:02:58.844Z,10.03
2022-10-11T11:08:16.499Z,9.20
2022-10-11T11:13:43.911Z,10.37
2022-10-11T11:19:02.877Z,9.23
2022-10-11T11:24:13.598Z,9.77
2022-10-11T11:29:27.399Z,9.47
2022-10-11T11:34:37.162Z,8.83
2022-10-11T11:39:51.844Z,8.57
2022-10-11T11:44:54.540Z,8.30
2022-10-11T11:50:19.227Z,8.53
2022-10-11T11:55:37.835Z,8.57
2022-10-11T12:00:58.905Z,8.60
2022-10-11T12:06:13.476Z,7.90
2022-10-11T12:11:34.564Z,8.13
2022-10-11T12:17:07.025Z,8.33
2022-10-11T12:22:27.866Z,7.13
2022-10-11T12:27:42.175Z,7.93
2022-10-11T12:32:44.480Z,7.63
2022-10-11T12:38:02.619Z,7.83
2022-10-11T12:43:25.856Z,9.00
2022-10-11T12:48:45.333Z,8.47
2022-10-11T12:54:25.039Z,8.17
2022-10-11T12:59:23.541Z,8.97
2022-10-11T13:04:32.603Z,7.20
2022-10-11T13:09:41.057Z,7.47
2022-10-11T13:14:53.507Z,6.83
2022-10-11T13:20:09.369Z,7.20
2022-10-11T13:25:17.251Z,6.03
2022-10-11T13:30:29.672Z,6.43
2022-10-11T13:35:39.270Z,6.57
2022-10-11T13:40:41.772Z,6.50
2022-10-11T13:45:44.347Z,6.33
2022-10-11T13:51:16.931Z,6.70
2022-10-11T13:56:20.132Z,6.80
2022-10-11T14:01:34.946Z,6.00
2022-10-11T14:06:59.723Z,7.67
2022-10-11T14:12:43.270Z,6.47
2022-10-11T14:17:46.467Z,6.67
2022-10-11T14:22:53.530Z,6.47
2022-10-11T14:27:58.554Z,6.23
2022-10-11T14:33:02.716Z,6.40
2022-10-11T14:38:11.888Z,6.67
2022-10-11T14:43:14.261Z,6.97
2022-10-11T14:48:26.715Z,6.83
2022-10-11T14:53:46.089Z,6.63
2022-10-11T14:58:48.887Z,7.33
2022-10-11T15:03:51.636Z,6.83
2022-10-11T15:08:54.171Z,6.40
2022-10-11T15:13:56.772Z,6.73
2022-10-11T15:18:59.236Z,6.30
2022-10-11T15:24:01.842Z,6.90
2022-10-11T15:29:04.792Z,7.33
2022-10-11T15:34:07.278Z,6.97
2022-10-11T15:39:28.028Z,6.57
2022-10-11T15:44:30.474Z,7.07
2022-10-11T15:49:33.257Z,6.77
2022-10-11T15:54:35.716Z,8.43
2022-10-11T15:59:38.098Z,7.13
2022-10-11T16:04:40.775Z,7.50
2022-10-11T16:09:43.197Z,6.47
2022-10-11T16:14:47.310Z,7.47
2022-10-11T16:19:50.541Z,7.33
2022-10-11T16:24:53.024Z,7.73
2022-10-11T16:29:55.725Z,6.97
2022-10-11T16:34:58.550Z,6.93
2022-10-11T16:40:01.129Z,6.97
2022-10-11T16:45:03.922Z,7.13
2022-10-11T16:50:06.876Z,7.80
2022-10-11T16:55:09.713Z,7.63
2022-10-11T17:00:13.214Z,7.37
2022-10-11T17:05:15.758Z,6.47
2022-10-11T17:10:18.502Z,7.43
2022-10-11T17:15:21.903Z,7.93
2022-10-11T17:20:24.271Z,5.90
2022-10-11T17:25:26.760Z,6.93
2022-10-11T17:30:31.965Z,7.57
2022-10-11T17:35:36.962Z,7.40
2022-10-11T17:40:39.476Z,8.10
2022-10-11T17:45:42.079Z,7.40
2022-10-11T17:50:49.640Z,7.50
2022-10-11T17:55:54.245Z,7.80
2022-10-11T18:01:00.402Z,6.90
2022-10-11T18:06:07.717Z,7.73
2022-10-11T18:11:12.531Z,7.77
2022-10-11T18:16:17.196Z,8.50
2022-10-11T18:21:20.008Z,7.77
2022-10-11T18:26:27.997Z,8.10
2022-10-11T18:31:35.144Z,7.90
2022-10-11T18:36:38.948Z,8.23
2022-10-11T18:41:44.427Z,8.87
2022-10-11T18:46:48.481Z,6.80
2022-10-11T18:51:51.091Z,7.77
2022-10-11T18:56:53.670Z,8.63
2022-10-11T19:01:56.032Z,6.77
2022-10-11T19:06:58.486Z,8.73
2022-10-11T19:12:00.930Z,9.03
2022-10-11T19:17:03.366Z,8.60
2022-10-11T19:22:06.487Z,8.53
2022-10-11T19:27:08.820Z,8.70
2022-10-11T19:32:11.290Z,8.33
2022-10-11T19:37:14.420Z,8.77
2022-10-11T19:42:16.936Z,8.47
2022-10-11T19:47:19.525Z,7.60
2022-10-11T19:52:22.067Z,8.90
2022-10-11T19:57:24.492Z,9.63
2022-10-11T20:02:26.913Z,8.93
2022-10-11T20:07:29.532Z,7.53
2022-10-11T20:12:33.053Z,8.80
2022-10-11T20:17:48.499Z,8.53
2022-10-11T20:22:51.176Z,9.00
2022-10-11T20:27:53.521Z,9.43
2022-10-11T20:32:55.861Z,9.30
2022-10-11T20:37:58.258Z,9.20
2022-10-11T20:43:00.693Z,9.13
2022-10-11T20:48:03.041Z,9.17
2022-10-11T20:53:05.469Z,9.33
2022-10-11T20:58:07.862Z,9.40
2022-10-11T21:03:10.993Z,9.70
2022-10-11T21:08:13.733Z,8.57
2022-10-11T21:13:16.116Z,8.87
2022-10-11T21:18:19.059Z,8.37
2022-10-11T21:23:21.740Z,8.77
2022-10-11T21:28:24.212Z,8.47
2022-10-11T21:33:26.858Z,8.47
2022-10-11T21:38:29.206Z,8.17
2022-10-11T21:43:31.817Z,8.90
2022-10-11T21:48:34.162Z,9.17
2022-10-11T21:53:37.029Z,8.80
2022-10-11T21:58:39.627Z,9.33
2022-10-11T22:03:42.061Z,9.17
2022-10-11T22:08:44.574Z,8.63
2022-10-11T22:13:47.171Z,7.97
2022-10-11T22:18:49.851Z,8.83
2022-10-11T22:23:53.937Z,16.87
2022-10-11T22:28:56.839Z,8.83
2022-10-11T22:34:00.602Z,10.87
2022-10-11T22:39:07.769Z,8.17
2022-10-11T22:44:10.911Z,8.37
2022-10-11T22:49:13.225Z,8.93
2022-10-11T22:54:15.831Z,8.20
2022-10-11T22:59:18.379Z,9.27
2022-10-11T23:04:21.001Z,8.30
2022-10-11T23:09:26.587Z,8.70
2022-10-11T23:14:28.939Z,8.83
2022-10-11T23:19:31.335Z,9.50
2022-10-11T23:24:33.693Z,8.77
2022-10-11T23:29:40.051Z,9.47
2022-10-11T23:34:42.708Z,8.40
2022-10-11T23:39:45.597Z,10.10
2022-10-11T23:44:48.175Z,8.83
2022-10-11T23:49:51.795Z,9.43
2022-10-11T23:54:54.107Z,9.03
2022-10-11T23:59:56.500Z,9.13
